createdAt,value
2016-10-19T00:00:53.531Z,0
2016-10-19T00:01:53.822Z,0
2016-10-19T00:02:53.477Z,0
2016-10-19T00:03:53.451Z,0
2016-10-19T00:04:53.423Z,0
2016-10-19T00:05:53.393Z,0
2016-10-19T00:06:53.367Z,0
2016-10-19T00:07:53.339Z,0
2016-10-19T00:08:53.306Z,0
2016-10-19T00:09:53.282Z,0
2016-10-19T00:10:53.256Z,0
2016-10-19T00:11:53.256Z,0
2016-10-19T00:12:53.197Z,0
2016-10-19T00:13:53.174Z,0
2016-10-19T00:14:53.147Z,0
2016-10-19T00:15:53.114Z,0
2016-10-19T00:16:53.091Z,0
2016-10-19T00:17:53.059Z,0
2016-10-19T00:18:53.029Z,0
2016-10-19T00:19:53.005Z,0
2016-10-19T00:20:52.978Z,0
2016-10-19T00:21:52.955Z,0
2016-10-19T00:22:52.937Z,0
2016-10-19T00:23:52.895Z,0
2016-10-19T00:24:52.871Z,0
2016-10-19T00:25:52.850Z,0
2016-10-19T00:26:52.817Z,0
2016-10-19T00:27:52.911Z,0
2016-10-19T00:28:52.761Z,0
2016-10-19T00:29:52.733Z,0
2016-10-19T00:30:52.701Z,0
2016-10-19T00:31:52.719Z,0
2016-10-19T00:32:52.648Z,0
2016-10-19T00:33:52.619Z,0
2016-10-19T00:34:52.598Z,0
2016-10-19T00:35:52.569Z,0
2016-10-19T00:36:52.545Z,0
2016-10-19T00:37:52.515Z,0
2016-10-19T00:38:52.487Z,0
2016-10-19T00:39:52.453Z,0
2016-10-19T00:40:52.436Z,0
2016-10-19T00:41:52.406Z,0
2016-10-19T00:42:52.404Z,0
2016-10-19T00:43:52.361Z,0
2016-10-19T00:44:52.322Z,0
2016-10-19T00:45:52.291Z,0
2016-10-19T00:46:52.270Z,0
2016-10-19T00:47:52.244Z,0
2016-10-19T00:48:52.215Z,0
2016-10-19T00:49:52.185Z,0
2016-10-19T00:50:52.158Z,0
2016-10-19T00:51:52.163Z,0
2016-10-19T00:52:52.103Z,0
2016-10-19T00:53:52.074Z,0
2016-10-19T00:54:52.044Z,0
2016-10-19T00:55:52.059Z,0
2016-10-19T00:56:52.302Z,0
2016-10-19T00:57:51.966Z,0
2016-10-19T00:58:51.935Z,0
2016-10-19T00:59:51.910Z,0
2016-10-19T01:00:51.881Z,0
2016-10-19T01:01:51.853Z,0
2016-10-19T01:02:51.867Z,0
2016-10-19T01:03:51.801Z,0
2016-10-19T01:04:51.777Z,0
2016-10-19T01:05:51.741Z,0
2016-10-19T01:06:51.748Z,0
2016-10-19T01:07:51.687Z,0
2016-10-19T01:08:51.665Z,0
2016-10-19T01:09:51.635Z,0
2016-10-19T01:10:51.609Z,0
2016-10-19T01:11:51.583Z,0
2016-10-19T01:12:51.553Z,0
2016-10-19T01:13:51.527Z,0
2016-10-19T01:14:51.537Z,0
2016-10-19T01:15:51.471Z,0
2016-10-19T01:16:51.478Z,0
2016-10-19T01:17:51.451Z,0
2016-10-19T01:18:51.390Z,0
2016-10-19T01:19:51.659Z,0
2016-10-19T01:20:51.335Z,0
2016-10-19T01:21:51.346Z,0
2016-10-19T01:22:51.288Z,0
2016-10-19T01:23:51.248Z,0
2016-10-19T01:24:51.224Z,0
2016-10-19T01:25:51.195Z,0
2016-10-19T01:26:51.167Z,0
2016-10-19T01:27:51.140Z,0
2016-10-19T01:28:51.493Z,0
2016-10-19T01:29:51.082Z,0
2016-10-19T01:30:51.102Z,0
2016-10-19T01:31:51.032Z,0
2016-10-19T01:32:51.034Z,0
2016-10-19T01:33:50.972Z,0
2016-10-19T01:34:50.946Z,0
2016-10-19T01:35:50.926Z,0
2016-10-19T01:36:50.892Z,0
2016-10-19T01:37:50.859Z,0
2016-10-19T01:38:50.838Z,0
2016-10-19T01:39:50.811Z,0
2016-10-19T01:40:50.775Z,0
2016-10-19T01:41:50.757Z,0
2016-10-19T01:42:50.726Z,0
2016-10-19T01:43:50.692Z,0
2016-10-19T01:44:50.669Z,0
2016-10-19T01:45:50.651Z,0
2016-10-19T01:46:50.613Z,0
2016-10-19T01:47:50.587Z,0
2016-10-19T01:48:50.560Z,0
2016-10-19T01:49:50.527Z,0
2016-10-19T01:50:50.500Z,0
2016-10-19T01:51:50.475Z,0
2016-10-19T01:52:50.461Z,0
2016-10-19T01:53:50.415Z,0
2016-10-19T01:54:50.429Z,0
2016-10-19T01:55:50.362Z,0
2016-10-19T01:56:50.335Z,0
2016-10-19T01:57:50.301Z,0
2016-10-19T01:58:50.284Z,0
2016-10-19T01:59:50.248Z,0
2016-10-19T02:00:50.216Z,0
2016-10-19T02:01:50.190Z,0
2016-10-19T02:02:50.172Z,0
2016-10-19T02:03:50.130Z,0
2016-10-19T02:04:50.105Z,0
2016-10-19T02:05:50.079Z,0
2016-10-19T02:06:50.057Z,0
2016-10-19T02:07:50.024Z,0
2016-10-19T02:08:50.025Z,0
2016-10-19T02:09:49.961Z,0
2016-10-19T02:10:49.934Z,0
2016-10-19T02:11:49.906Z,0
2016-10-19T02:12:49.877Z,0
2016-10-19T02:13:49.845Z,0
2016-10-19T02:14:49.820Z,0
2016-10-19T02:15:49.787Z,0
2016-10-19T02:16:49.769Z,0
2016-10-19T02:17:49.738Z,0
2016-10-19T02:18:49.696Z,0
2016-10-19T02:19:49.672Z,0
2016-10-19T02:20:49.643Z,0
2016-10-19T02:21:49.658Z,0
2016-10-19T02:22:49.890Z,0
2016-10-19T02:23:49.560Z,0
2016-10-19T02:24:49.536Z,0
2016-10-19T02:25:49.497Z,0
2016-10-19T02:26:49.472Z,0
2016-10-19T02:27:49.485Z,0
2016-10-19T02:28:49.413Z,0
2016-10-19T02:29:49.393Z,0
2016-10-19T02:30:49.361Z,0
2016-10-19T02:31:49.332Z,0
2016-10-19T02:32:49.301Z,0
2016-10-19T02:33:49.270Z,0
2016-10-19T02:34:49.240Z,0
2016-10-19T02:35:49.214Z,0
2016-10-19T02:36:49.192Z,0
2016-10-19T02:37:49.156Z,0
2016-10-19T02:38:49.432Z,0
2016-10-19T02:39:49.095Z,0
2016-10-19T02:40:49.078Z,0
2016-10-19T02:41:49.053Z,0
2016-10-19T02:42:49.046Z,0
2016-10-19T02:43:49.022Z,0
2016-10-19T02:44:48.960Z,0
2016-10-19T02:45:48.925Z,0
2016-10-19T02:46:48.895Z,0
2016-10-19T02:47:48.869Z,0
2016-10-19T02:48:48.841Z,0
2016-10-19T02:49:48.814Z,0
2016-10-19T02:50:48.786Z,0
2016-10-19T02:51:48.758Z,0
2016-10-19T02:52:48.754Z,0
2016-10-19T02:53:48.692Z,0
2016-10-19T02:54:48.963Z,0
2016-10-19T02:55:48.638Z,0
2016-10-19T02:56:48.612Z,0
2016-10-19T02:57:48.574Z,0
2016-10-19T02:58:48.553Z,0
2016-10-19T02:59:48.528Z,0
2016-10-19T03:00:48.497Z,0
2016-10-19T03:01:48.467Z,0
2016-10-19T03:02:48.443Z,0
2016-10-19T03:03:48.414Z,0
2016-10-19T03:04:48.371Z,0
2016-10-19T03:05:48.348Z,0
2016-10-19T03:06:48.329Z,0
2016-10-19T03:07:48.295Z,0
2016-10-19T03:08:48.261Z,0
2016-10-19T03:09:48.234Z,0
2016-10-19T03:10:48.207Z,0
2016-10-19T03:11:48.206Z,0
2016-10-19T03:12:48.150Z,0
2016-10-19T03:13:48.118Z,0
2016-10-19T03:14:48.086Z,0
2016-10-19T03:15:48.063Z,0
2016-10-19T03:16:48.031Z,0
2016-10-19T03:17:48.002Z,0
2016-10-19T03:18:47.971Z,0
2016-10-19T03:19:47.941Z,0
2016-10-19T03:20:47.913Z,0
2016-10-19T03:21:47.926Z,0
2016-10-19T03:22:47.861Z,0
2016-10-19T03:23:47.870Z,0
2016-10-19T03:24:47.798Z,0
2016-10-19T03:25:47.772Z,0
2016-10-19T03:26:47.744Z,0
2016-10-19T03:27:47.717Z,0
2016-10-19T03:28:47.685Z,0
2016-10-19T03:29:47.659Z,0
2016-10-19T03:30:47.626Z,0
2016-10-19T03:31:47.601Z,0
2016-10-19T03:32:47.576Z,0
2016-10-19T03:33:47.832Z,0
2016-10-19T03:34:47.553Z,0
2016-10-19T03:35:47.518Z,0
2016-10-19T03:36:47.457Z,0
2016-10-19T03:37:47.427Z,0
2016-10-19T03:38:47.404Z,0
2016-10-19T03:39:47.371Z,0
2016-10-19T03:40:47.338Z,0
2016-10-19T03:41:47.314Z,0
2016-10-19T03:42:47.284Z,0
2016-10-19T03:43:47.248Z,0
2016-10-19T03:44:47.228Z,0
2016-10-19T03:45:47.193Z,0
2016-10-19T03:46:47.504Z,0
2016-10-19T03:47:47.173Z,0
2016-10-19T03:48:47.113Z,0
2016-10-19T03:49:47.376Z,0
2016-10-19T03:50:47.054Z,0
2016-10-19T03:51:47.031Z,0
2016-10-19T03:52:46.993Z,0
2016-10-19T03:53:46.961Z,0
2016-10-19T03:54:46.940Z,0
2016-10-19T03:55:46.906Z,0
2016-10-19T03:56:46.876Z,0
2016-10-19T03:57:46.861Z,0
2016-10-19T03:58:46.819Z,0
2016-10-19T03:59:46.797Z,0
2016-10-19T04:00:46.767Z,0
2016-10-19T04:01:46.775Z,0
2016-10-19T04:02:46.722Z,0
2016-10-19T04:03:46.679Z,0
2016-10-19T04:04:46.671Z,0
2016-10-19T04:05:46.624Z,0
2016-10-19T04:06:46.637Z,0
2016-10-19T04:07:46.574Z,0
2016-10-19T04:08:46.543Z,0
2016-10-19T04:09:46.548Z,0
2016-10-19T04:10:46.473Z,0
2016-10-19T04:11:46.451Z,0
2016-10-19T04:12:46.464Z,0
2016-10-19T04:13:46.430Z,0
2016-10-19T04:14:46.358Z,0
2016-10-19T04:15:46.335Z,0
2016-10-19T04:16:46.314Z,0
2016-10-19T04:17:46.276Z,0
2016-10-19T04:18:46.249Z,0
2016-10-19T04:19:46.216Z,0
2016-10-19T04:20:46.232Z,0
2016-10-19T04:21:46.165Z,0
2016-10-19T04:22:46.133Z,0
2016-10-19T04:23:46.106Z,0
2016-10-19T04:24:46.075Z,0
2016-10-19T04:25:46.087Z,0
2016-10-19T04:26:46.067Z,0
2016-10-19T04:27:45.987Z,0
2016-10-19T04:28:45.953Z,0
2016-10-19T04:29:45.930Z,0
2016-10-19T04:30:45.898Z,0
2016-10-19T04:31:45.870Z,0
2016-10-19T04:32:45.850Z,0
2016-10-19T04:33:45.813Z,0
2016-10-19T04:34:45.787Z,0
2016-10-19T04:35:45.756Z,0
2016-10-19T04:36:45.767Z,0
2016-10-19T04:37:45.701Z,0
2016-10-19T04:38:45.713Z,0
2016-10-19T04:39:45.645Z,0
2016-10-19T04:40:45.613Z,0
2016-10-19T04:41:45.596Z,0
2016-10-19T04:42:45.556Z,0
2016-10-19T04:43:45.528Z,0
2016-10-19T04:44:45.504Z,0
2016-10-19T04:45:45.514Z,0
2016-10-19T04:46:45.443Z,0
2016-10-19T04:47:45.407Z,0
2016-10-19T04:48:45.380Z,0
2016-10-19T04:49:45.381Z,0
2016-10-19T04:50:45.329Z,0
2016-10-19T04:51:45.293Z,0
2016-10-19T04:52:45.274Z,0
2016-10-19T04:53:45.239Z,0
2016-10-19T04:54:45.218Z,0
2016-10-19T04:55:45.185Z,0
2016-10-19T04:56:45.157Z,0
2016-10-19T04:57:45.147Z,0
2016-10-19T04:58:45.094Z,0
2016-10-19T04:59:45.077Z,0
2016-10-19T05:00:45.037Z,0
2016-10-19T05:01:45.008Z,0
2016-10-19T05:02:44.986Z,0
2016-10-19T05:03:44.950Z,0
2016-10-19T05:04:44.921Z,0
2016-10-19T05:05:44.891Z,0
2016-10-19T05:06:44.867Z,0
2016-10-19T05:07:44.901Z,0
2016-10-19T05:08:44.807Z,0
2016-10-19T05:09:44.777Z,0
2016-10-19T05:10:44.761Z,0
2016-10-19T05:11:44.721Z,0
2016-10-19T05:12:44.687Z,0
2016-10-19T05:13:44.672Z,0
2016-10-19T05:14:44.629Z,0
2016-10-19T05:15:44.604Z,0
2016-10-19T05:16:44.580Z,0
2016-10-19T05:17:44.546Z,0
2016-10-19T05:18:44.517Z,0
2016-10-19T05:19:44.494Z,0
2016-10-19T05:20:44.470Z,0
2016-10-19T05:21:44.434Z,0
2016-10-19T05:22:44.445Z,0
2016-10-19T05:23:44.369Z,0
2016-10-19T05:24:44.348Z,0
2016-10-19T05:25:44.320Z,0
2016-10-19T05:26:44.287Z,0
2016-10-19T05:27:44.256Z,0
2016-10-19T05:28:44.227Z,0
2016-10-19T05:29:44.198Z,0
2016-10-19T05:30:44.188Z,0
2016-10-19T05:31:44.147Z,0
2016-10-19T05:32:44.115Z,0
2016-10-19T05:33:44.086Z,0
2016-10-19T05:34:44.056Z,0
2016-10-19T05:35:44.031Z,0
2016-10-19T05:36:44.001Z,0
2016-10-19T05:37:43.969Z,0
2016-10-19T05:38:43.945Z,0
2016-10-19T05:39:43.924Z,0
2016-10-19T05:40:43.888Z,0
2016-10-19T05:41:44.160Z,0
2016-10-19T05:42:43.837Z,0
2016-10-19T05:43:43.803Z,0
2016-10-19T05:44:43.774Z,0
2016-10-19T05:45:43.750Z,0
2016-10-19T05:46:43.722Z,0
2016-10-19T05:47:43.686Z,0
2016-10-19T05:48:43.958Z,0
2016-10-19T05:49:43.637Z,0
2016-10-19T05:50:43.606Z,0
2016-10-19T05:51:43.578Z,0
2016-10-19T05:52:43.579Z,0
2016-10-19T05:53:43.521Z,0
2016-10-19T05:54:43.495Z,0
2016-10-19T05:55:43.466Z,0
2016-10-19T05:56:43.437Z,0
2016-10-19T05:57:43.403Z,5
2016-10-19T05:58:43.377Z,5
2016-10-19T05:59:43.644Z,5
2016-10-19T06:00:43.327Z,5
2016-10-19T06:01:43.291Z,5
2016-10-19T06:02:43.264Z,5
2016-10-19T06:03:43.232Z,5
2016-10-19T06:04:43.197Z,5
2016-10-19T06:05:43.173Z,5
2016-10-19T06:06:43.146Z,5
2016-10-19T06:07:43.412Z,10
2016-10-19T06:08:43.091Z,10
2016-10-19T06:09:43.066Z,10
2016-10-19T06:10:43.039Z,10
2016-10-19T06:11:43.007Z,10
2016-10-19T06:12:42.973Z,15
2016-10-19T06:13:42.949Z,15
2016-10-19T06:14:42.916Z,15
2016-10-19T06:15:42.889Z,15
2016-10-19T06:16:42.868Z,15
2016-10-19T06:17:42.834Z,15
2016-10-19T06:18:42.802Z,15
2016-10-19T06:19:42.778Z,15
2016-10-19T06:20:42.784Z,20
2016-10-19T06:21:42.763Z,20
2016-10-19T06:22:42.690Z,20
2016-10-19T06:23:42.661Z,20
2016-10-19T06:24:42.636Z,20
2016-10-19T06:25:42.613Z,20
2016-10-19T06:26:42.884Z,20
2016-10-19T06:27:42.555Z,20
2016-10-19T06:28:42.554Z,25
2016-10-19T06:29:42.495Z,25
2016-10-19T06:30:42.466Z,30
2016-10-19T06:31:42.732Z,25
2016-10-19T06:32:42.450Z,25
2016-10-19T06:33:42.412Z,25
2016-10-19T06:34:42.352Z,20
2016-10-19T06:35:42.319Z,20
2016-10-19T06:36:42.298Z,20
2016-10-19T06:37:42.270Z,25
2016-10-19T06:38:42.239Z,25
2016-10-19T06:39:42.209Z,25
2016-10-19T06:40:42.181Z,25
2016-10-19T06:41:42.159Z,25
2016-10-19T06:42:42.128Z,25
2016-10-19T06:43:42.101Z,30
2016-10-19T06:44:42.374Z,30
2016-10-19T06:45:42.041Z,30
2016-10-19T06:46:42.017Z,30
2016-10-19T06:47:42.018Z,30
2016-10-19T06:48:41.959Z,25
2016-10-19T06:49:42.224Z,25
2016-10-19T06:50:41.900Z,25
2016-10-19T06:51:42.252Z,30
2016-10-19T06:52:41.851Z,30
2016-10-19T06:53:42.717Z,30
2016-10-19T06:54:41.795Z,30
2016-10-19T06:55:41.755Z,30
2016-10-19T06:56:41.725Z,30
2016-10-19T06:57:41.701Z,40
2016-10-19T06:58:41.676Z,45
2016-10-19T06:59:41.648Z,40
2016-10-19T07:00:41.617Z,40
2016-10-19T07:01:41.599Z,35
2016-10-19T07:02:41.563Z,35
2016-10-19T07:03:41.537Z,40
2016-10-19T07:04:42.692Z,40
2016-10-19T07:05:41.503Z,45
2016-10-19T07:06:41.481Z,50
2016-10-19T07:07:41.478Z,60
2016-10-19T07:08:41.455Z,65
2016-10-19T07:09:41.365Z,70
2016-10-19T07:10:41.340Z,75
2016-10-19T07:11:41.307Z,75
2016-10-19T07:12:41.281Z,70
2016-10-19T07:13:41.254Z,65
2016-10-19T07:14:41.222Z,65
2016-10-19T07:15:41.202Z,70
2016-10-19T07:16:41.169Z,70
2016-10-19T07:17:41.146Z,70
2016-10-19T07:18:41.117Z,65
2016-10-19T07:19:41.083Z,60
2016-10-19T07:20:41.055Z,55
2016-10-19T07:21:41.028Z,45
2016-10-19T07:22:41.271Z,40
2016-10-19T07:23:40.973Z,40
2016-10-19T07:24:40.945Z,40
2016-10-19T07:25:41.211Z,45
2016-10-19T07:26:40.887Z,45
2016-10-19T07:27:40.854Z,50
2016-10-19T07:28:40.854Z,50
2016-10-19T07:29:40.815Z,55
2016-10-19T07:30:40.775Z,65
2016-10-19T07:31:40.743Z,70
2016-10-19T07:32:40.722Z,75
2016-10-19T07:33:40.693Z,75
2016-10-19T07:34:40.667Z,65
2016-10-19T07:35:40.634Z,70
2016-10-19T07:36:40.643Z,65
2016-10-19T07:37:40.607Z,65
2016-10-19T07:38:40.551Z,60
2016-10-19T07:39:40.516Z,55
2016-10-19T07:40:40.498Z,50
2016-10-19T07:41:40.470Z,45
2016-10-19T07:42:40.438Z,40
2016-10-19T07:43:40.412Z,35
2016-10-19T07:44:40.383Z,35
2016-10-19T07:45:40.395Z,35
2016-10-19T07:46:40.322Z,35
2016-10-19T07:47:40.295Z,30
2016-10-19T07:48:40.278Z,30
2016-10-19T07:49:40.240Z,30
2016-10-19T07:50:40.218Z,35
2016-10-19T07:51:40.187Z,30
2016-10-19T07:52:40.156Z,35
2016-10-19T07:53:40.517Z,35
2016-10-19T07:54:40.095Z,35
2016-10-19T07:55:40.071Z,40
2016-10-19T07:56:40.045Z,45
2016-10-19T07:57:40.123Z,45
2016-10-19T07:58:39.981Z,45
2016-10-19T07:59:39.959Z,45
2016-10-19T08:00:39.929Z,60
2016-10-19T08:01:39.918Z,65
2016-10-19T08:02:39.878Z,70
2016-10-19T08:03:39.867Z,75
2016-10-19T08:04:39.817Z,85
2016-10-19T08:05:39.790Z,90
2016-10-19T08:06:40.058Z,95
2016-10-19T08:07:39.733Z,100
2016-10-19T08:08:39.706Z,95
2016-10-19T08:09:39.678Z,85
2016-10-19T08:10:39.650Z,80
2016-10-19T08:11:39.930Z,75
2016-10-19T08:12:39.637Z,65
2016-10-19T08:13:39.562Z,60
2016-10-19T08:14:39.538Z,55
2016-10-19T08:15:39.511Z,55
2016-10-19T08:16:39.523Z,50
2016-10-19T08:17:39.747Z,55
2016-10-19T08:18:39.728Z,50
2016-10-19T08:19:39.396Z,55
2016-10-19T08:20:39.376Z,65
2016-10-19T08:21:39.347Z,70
2016-10-19T08:22:39.319Z,65
2016-10-19T08:23:39.577Z,60
2016-10-19T08:24:39.252Z,50
2016-10-19T08:25:39.272Z,45
2016-10-19T08:26:39.195Z,45
2016-10-19T08:27:39.174Z,40
2016-10-19T08:28:39.157Z,40
2016-10-19T08:29:39.444Z,40
2016-10-19T08:30:39.098Z,35
2016-10-19T08:31:39.056Z,45
2016-10-19T08:32:39.336Z,40
2016-10-19T08:33:39.000Z,45
2016-10-19T08:34:39.759Z,50
2016-10-19T08:35:38.940Z,40
2016-10-19T08:36:39.230Z,45
2016-10-19T08:37:39.290Z,45
2016-10-19T08:38:39.256Z,50
2016-10-19T08:39:38.833Z,55
2016-10-19T08:40:38.801Z,55
2016-10-19T08:41:39.065Z,60
2016-10-19T08:42:38.740Z,65
2016-10-19T08:43:38.730Z,85
2016-10-19T08:44:38.685Z,90
2016-10-19T08:45:38.664Z,95
2016-10-19T08:46:38.638Z,115
2016-10-19T08:47:38.909Z,110
2016-10-19T08:48:38.592Z,110
2016-10-19T08:49:38.543Z,125
2016-10-19T08:50:38.673Z,145
2016-10-19T08:51:38.494Z,135
2016-10-19T08:52:38.460Z,135
2016-10-19T08:53:38.443Z,140
2016-10-19T08:54:38.483Z,155
2016-10-19T08:55:38.667Z,200
2016-10-19T08:56:38.349Z,220
2016-10-19T08:57:38.321Z,170
2016-10-19T08:58:38.588Z,160
2016-10-19T08:59:38.273Z,160
2016-10-19T09:00:38.241Z,150
2016-10-19T09:01:38.583Z,165
2016-10-19T09:02:38.565Z,135
2016-10-19T09:03:38.169Z,155
2016-10-19T09:04:38.241Z,165
2016-10-19T09:05:38.101Z,170
2016-10-19T09:06:38.077Z,175
2016-10-19T09:07:38.048Z,180
2016-10-19T09:08:38.065Z,200
2016-10-19T09:09:39.625Z,185
2016-10-19T09:10:37.966Z,155
2016-10-19T09:11:37.929Z,155
2016-10-19T09:12:37.914Z,190
2016-10-19T09:13:37.875Z,225
2016-10-19T09:14:37.880Z,250
2016-10-19T09:15:37.855Z,215
2016-10-19T09:16:38.088Z,215
2016-10-19T09:17:37.765Z,205
2016-10-19T09:18:38.043Z,180
2016-10-19T09:19:37.703Z,145
2016-10-19T09:20:37.681Z,125
2016-10-19T09:21:37.651Z,105
2016-10-19T09:22:37.793Z,110
2016-10-19T09:23:37.604Z,115
2016-10-19T09:24:37.601Z,105
2016-10-19T09:25:37.975Z,125
2016-10-19T09:26:37.522Z,140
2016-10-19T09:27:37.485Z,165
2016-10-19T09:28:37.757Z,180
2016-10-19T09:29:37.431Z,200
2016-10-19T09:30:37.411Z,215
2016-10-19T09:31:37.407Z,195
2016-10-19T09:32:37.378Z,225
2016-10-19T09:33:37.325Z,230
2016-10-19T09:34:37.296Z,285
2016-10-19T09:35:37.309Z,250
2016-10-19T09:36:37.251Z,195
2016-10-19T09:37:37.220Z,185
2016-10-19T09:38:37.189Z,190
2016-10-19T09:39:37.460Z,155
2016-10-19T09:40:37.135Z,135
2016-10-19T09:41:37.104Z,135
2016-10-19T09:42:37.116Z,125
2016-10-19T09:43:37.050Z,130
2016-10-19T09:44:37.023Z,125
2016-10-19T09:45:37.300Z,150
2016-10-19T09:46:36.967Z,130
2016-10-19T09:47:36.940Z,135
2016-10-19T09:48:36.909Z,135
2016-10-19T09:49:37.184Z,135
2016-10-19T09:50:36.859Z,135
2016-10-19T09:51:36.881Z,165
2016-10-19T09:52:37.142Z,190
2016-10-19T09:53:36.772Z,155
2016-10-19T09:54:36.740Z,195
2016-10-19T09:55:37.061Z,235
2016-10-19T09:56:36.693Z,285
2016-10-19T09:57:36.674Z,320
2016-10-19T09:58:36.939Z,210
2016-10-19T09:59:36.611Z,240
2016-10-19T10:00:36.609Z,215
2016-10-19T10:01:36.557Z,230
2016-10-19T10:02:36.526Z,300
2016-10-19T10:03:36.500Z,350
2016-10-19T10:04:36.489Z,340
2016-10-19T10:05:36.744Z,265
2016-10-19T10:06:36.420Z,300
2016-10-19T10:07:36.393Z,225
2016-10-19T10:08:36.367Z,210
2016-10-19T10:09:36.345Z,205
2016-10-19T10:10:36.318Z,205
2016-10-19T10:11:36.287Z,180
2016-10-19T10:12:36.252Z,155
2016-10-19T10:13:36.228Z,160
2016-10-19T10:14:36.202Z,215
2016-10-19T10:15:36.274Z,265
2016-10-19T10:16:36.183Z,270
2016-10-19T10:17:36.118Z,195
2016-10-19T10:18:36.099Z,210
2016-10-19T10:19:36.108Z,215
2016-10-19T10:20:36.042Z,260
2016-10-19T10:21:36.015Z,250
2016-10-19T10:22:35.985Z,260
2016-10-19T10:23:35.958Z,220
2016-10-19T10:24:35.931Z,235
2016-10-19T10:25:35.951Z,265
2016-10-19T10:26:35.880Z,240
2016-10-19T10:27:35.855Z,255
2016-10-19T10:28:35.829Z,265
2016-10-19T10:29:35.845Z,255
2016-10-19T10:30:35.777Z,225
2016-10-19T10:31:35.767Z,215
2016-10-19T10:32:35.721Z,205
2016-10-19T10:33:36.156Z,175
2016-10-19T10:34:35.707Z,165
2016-10-19T10:35:35.642Z,205
2016-10-19T10:36:35.610Z,240
2016-10-19T10:37:35.584Z,200
2016-10-19T10:38:35.562Z,240
2016-10-19T10:39:35.909Z,220
2016-10-19T10:40:35.512Z,215
2016-10-19T10:41:35.477Z,220
2016-10-19T10:42:35.451Z,210
2016-10-19T10:43:35.428Z,180
2016-10-19T10:44:35.394Z,260
2016-10-19T10:45:35.368Z,210
2016-10-19T10:46:35.345Z,205
2016-10-19T10:47:35.318Z,240
2016-10-19T10:48:35.298Z,215
2016-10-19T10:49:35.258Z,135
2016-10-19T10:50:35.240Z,100
2016-10-19T10:51:35.209Z,90
2016-10-19T10:52:35.185Z,80
2016-10-19T10:53:35.156Z,75
2016-10-19T10:54:35.125Z,120
2016-10-19T10:55:35.100Z,110
2016-10-19T10:56:35.616Z,125
2016-10-19T10:57:35.542Z,230
2016-10-19T10:58:35.021Z,470
2016-10-19T10:59:34.991Z,305
2016-10-19T11:00:34.981Z,210
2016-10-19T11:01:34.940Z,190
2016-10-19T11:02:34.920Z,185
2016-10-19T11:03:35.233Z,125
2016-10-19T11:04:34.858Z,125
2016-10-19T11:05:34.923Z,145
2016-10-19T11:06:35.063Z,130
2016-10-19T11:07:34.818Z,200
2016-10-19T11:08:34.786Z,260
2016-10-19T11:09:34.730Z,345
2016-10-19T11:10:34.704Z,390
2016-10-19T11:11:34.716Z,350
2016-10-19T11:12:35.338Z,325
2016-10-19T11:13:34.623Z,205
2016-10-19T11:14:34.597Z,195
2016-10-19T11:15:34.569Z,105
2016-10-19T11:16:34.541Z,135
2016-10-19T11:17:34.670Z,170
2016-10-19T11:18:34.484Z,225
2016-10-19T11:19:34.494Z,230
2016-10-19T11:20:34.436Z,260
2016-10-19T11:21:34.414Z,440
2016-10-19T11:22:34.386Z,425
2016-10-19T11:23:34.391Z,480
2016-10-19T11:24:34.332Z,475
2016-10-19T11:25:34.307Z,365
2016-10-19T11:26:34.273Z,550
2016-10-19T11:27:34.254Z,685
2016-10-19T11:28:34.224Z,710
2016-10-19T11:29:34.197Z,640
2016-10-19T11:30:35.492Z,720
2016-10-19T11:31:34.151Z,580
2016-10-19T11:32:34.121Z,570
2016-10-19T11:33:35.118Z,600
2016-10-19T11:34:34.101Z,525
2016-10-19T11:35:34.380Z,485
2016-10-19T11:36:34.016Z,340
2016-10-19T11:37:34.303Z,430
2016-10-19T11:38:33.972Z,395
2016-10-19T11:39:33.943Z,330
2016-10-19T11:40:33.916Z,320
2016-10-19T11:41:33.892Z,295
2016-10-19T11:42:33.869Z,270
2016-10-19T11:43:33.841Z,345
2016-10-19T11:44:33.814Z,400
2016-10-19T11:45:33.840Z,430
2016-10-19T11:46:33.797Z,405
2016-10-19T11:47:34.049Z,460
2016-10-19T11:48:33.717Z,690
2016-10-19T11:49:33.687Z,870
2016-10-19T11:50:33.657Z,880
2016-10-19T11:51:33.641Z,710
2016-10-19T11:52:33.603Z,450
2016-10-19T11:53:33.579Z,480
2016-10-19T11:54:33.564Z,435
2016-10-19T11:55:33.565Z,315
2016-10-19T11:56:33.512Z,355
2016-10-19T11:57:33.479Z,410
2016-10-19T11:58:33.454Z,885
2016-10-19T11:59:33.446Z,910
2016-10-19T12:00:33.407Z,965
2016-10-19T12:01:33.386Z,980
2016-10-19T12:02:33.352Z,845
2016-10-19T12:03:33.332Z,750
2016-10-19T12:04:33.309Z,1010
2016-10-19T12:05:33.282Z,990
2016-10-19T12:06:33.556Z,945
2016-10-19T12:07:33.237Z,790
2016-10-19T12:08:33.215Z,630
2016-10-19T12:09:33.229Z,645
2016-10-19T12:10:33.163Z,445
2016-10-19T12:11:33.181Z,535
2016-10-19T12:12:33.113Z,435
2016-10-19T12:13:33.085Z,320
2016-10-19T12:14:33.066Z,345
2016-10-19T12:15:33.033Z,420
2016-10-19T12:16:33.011Z,480
2016-10-19T12:17:32.997Z,490
2016-10-19T12:18:32.963Z,445
2016-10-19T12:19:33.069Z,380
2016-10-19T12:20:32.919Z,340
2016-10-19T12:21:32.885Z,280
2016-10-19T12:22:32.888Z,255
2016-10-19T12:23:32.839Z,275
2016-10-19T12:24:32.811Z,240
2016-10-19T12:25:33.216Z,205
2016-10-19T12:26:32.783Z,135
2016-10-19T12:27:32.740Z,125
2016-10-19T12:28:32.719Z,100
2016-10-19T12:29:32.831Z,80
2016-10-19T12:30:33.435Z,80
2016-10-19T12:31:33.090Z,95
2016-10-19T12:32:32.613Z,90
2016-10-19T12:33:32.588Z,85
2016-10-19T12:34:32.559Z,140
2016-10-19T12:35:32.533Z,175
2016-10-19T12:36:33.720Z,260
2016-10-19T12:37:32.517Z,325
2016-10-19T12:38:32.455Z,400
2016-10-19T12:39:32.434Z,435
2016-10-19T12:40:32.409Z,435
2016-10-19T12:41:32.379Z,485
2016-10-19T12:42:32.358Z,545
2016-10-19T12:43:32.628Z,520
2016-10-19T12:44:32.305Z,420
2016-10-19T12:45:32.304Z,415
2016-10-19T12:46:32.895Z,530
2016-10-19T12:47:32.225Z,510
2016-10-19T12:48:32.630Z,470
2016-10-19T12:49:32.178Z,380
2016-10-19T12:50:32.141Z,385
2016-10-19T12:51:32.509Z,375
2016-10-19T12:52:32.094Z,440
2016-10-19T12:53:32.067Z,510
2016-10-19T12:54:32.049Z,595
2016-10-19T12:55:32.046Z,635
2016-10-19T12:56:31.996Z,605
2016-10-19T12:57:32.021Z,545
2016-10-19T12:58:32.030Z,350
2016-10-19T12:59:31.927Z,375
2016-10-19T13:00:31.891Z,350
2016-10-19T13:01:31.862Z,210
2016-10-19T13:02:31.856Z,165
2016-10-19T13:03:31.815Z,110
2016-10-19T13:04:32.262Z,120
2016-10-19T13:05:31.769Z,165
2016-10-19T13:06:31.739Z,180
2016-10-19T13:07:31.708Z,310
2016-10-19T13:08:31.696Z,210
2016-10-19T13:09:31.657Z,115
2016-10-19T13:10:31.637Z,120
2016-10-19T13:11:31.610Z,115
2016-10-19T13:12:31.626Z,110
2016-10-19T13:13:31.548Z,105
2016-10-19T13:14:31.852Z,115
2016-10-19T13:15:31.499Z,110
2016-10-19T13:16:31.478Z,100
2016-10-19T13:17:31.707Z,110
2016-10-19T13:18:31.419Z,105
2016-10-19T13:19:31.393Z,95
2016-10-19T13:20:31.401Z,85
2016-10-19T13:21:31.345Z,80
2016-10-19T13:22:31.308Z,95
2016-10-19T13:23:31.287Z,90
2016-10-19T13:24:31.300Z,100
2016-10-19T13:25:31.242Z,115
2016-10-19T13:26:31.214Z,120
2016-10-19T13:27:31.179Z,120
2016-10-19T13:28:31.149Z,120
2016-10-19T13:29:31.140Z,115
2016-10-19T13:30:31.139Z,110
2016-10-19T13:31:31.074Z,105
2016-10-19T13:32:31.344Z,100
2016-10-19T13:33:31.009Z,95
2016-10-19T13:34:30.995Z,80
2016-10-19T13:35:30.963Z,80
2016-10-19T13:36:30.930Z,95
2016-10-19T13:37:30.907Z,105
2016-10-19T13:38:30.883Z,125
2016-10-19T13:39:30.848Z,120
2016-10-19T13:40:30.826Z,110
2016-10-19T13:41:30.802Z,165
2016-10-19T13:42:31.079Z,170
2016-10-19T13:43:30.750Z,150
2016-10-19T13:44:30.713Z,160
2016-10-19T13:45:30.687Z,145
2016-10-19T13:46:30.657Z,135
2016-10-19T13:47:30.658Z,170
2016-10-19T13:48:30.603Z,160
2016-10-19T13:49:30.655Z,200
2016-10-19T13:50:30.580Z,165
2016-10-19T13:51:30.521Z,160
2016-10-19T13:52:30.486Z,140
2016-10-19T13:53:30.465Z,160
2016-10-19T13:54:30.476Z,135
2016-10-19T13:55:30.411Z,90
2016-10-19T13:56:30.396Z,125
2016-10-19T13:57:30.347Z,100
2016-10-19T13:58:30.357Z,115
2016-10-19T13:59:30.329Z,110
2016-10-19T14:00:30.305Z,110
2016-10-19T14:01:30.377Z,85
2016-10-19T14:02:30.206Z,75
2016-10-19T14:03:30.182Z,85
2016-10-19T14:04:30.171Z,110
2016-10-19T14:05:30.128Z,100
2016-10-19T14:06:30.100Z,105
2016-10-19T14:07:30.073Z,105
2016-10-19T14:08:30.045Z,105
2016-10-19T14:09:30.016Z,100
2016-10-19T14:10:29.988Z,135
2016-10-19T14:11:29.962Z,155
2016-10-19T14:12:29.929Z,160
2016-10-19T14:13:30.197Z,165
2016-10-19T14:14:29.920Z,155
2016-10-19T14:15:29.842Z,135
2016-10-19T14:16:29.815Z,115
2016-10-19T14:17:30.201Z,110